Williamsburg, Mississippi
Current Conditions -  °F | °C
As of 10:15 AM on Thursday 18 Dec 2014 (Local Time) from KPIB Reporting Station
Clear Clear  
Wind Chill: 52°   Ceiling: Unl
Heat Index: 52°   Visibility: 8mi
Dew Point: 39°   Wind: 9mph
Humidity: 62%   Direction: 140°SE
Pressure: 30.21"   Gusts: NA
Location:  31.6692°N, 89.543°W
Report Text: KPIB 181615Z AUTO 14008KT 8SM CLR 11/04 A3021 RMK AO1
Loading
Personal Weather Stations






























Interactive Weather Map New forecast layout! Learn more

10-Day Weather Forecast

Advertisements
Track Severe Weather on mobile